sensor_id;sensor_type;location;lat;lon;timestamp;P1;durP1;ratioP1;P2;durP2;ratioP2
3625;SDS011;1827;50.534;8.316;2024-03-17T00:01:52;22.33;;;7.47;;
3625;SDS011;1827;50.534;8.316;2024-03-17T00:04:17;25.90;;;6.80;;
3625;SDS011;1827;50.534;8.316;2024-03-17T00:06:44;25.17;;;6.80;;
3625;SDS011;1827;50.534;8.316;2024-03-17T00:09:10;28.43;;;7.10;;
3625;SDS011;1827;50.534;8.316;2024-03-17T00:11:36;21.30;;;7.63;;
3625;SDS011;1827;50.534;8.316;2024-03-17T00:14:02;28.00;;;8.00;;
3625;SDS011;1827;50.534;8.316;2024-03-17T00:16:28;28.53;;;7.70;;
3625;SDS011;1827;50.534;8.316;2024-03-17T00:18:54;25.80;;;8.40;;
3625;SDS011;1827;50.534;8.316;2024-03-17T00:21:20;22.50;;;7.60;;
3625;SDS011;1827;50.534;8.316;2024-03-17T00:23:49;23.47;;;8.00;;
3625;SDS011;1827;50.534;8.316;2024-03-17T00:26:15;30.80;;;7.83;;
3625;SDS011;1827;50.534;8.316;2024-03-17T00:28:41;25.60;;;7.90;;
3625;SDS011;1827;50.534;8.316;2024-03-17T00:31:10;26.00;;;8.20;;
3625;SDS011;1827;50.534;8.316;2024-03-17T00:33:35;22.90;;;8.07;;
3625;SDS011;1827;50.534;8.316;2024-03-17T00:36:01;23.30;;;8.23;;
3625;SDS011;1827;50.534;8.316;2024-03-17T00:38:27;23.63;;;7.90;;
3625;SDS011;1827;50.534;8.316;2024-03-17T00:40:53;24.10;;;8.10;;
3625;SDS011;1827;50.534;8.316;2024-03-17T00:43:18;26.73;;;8.57;;
3625;SDS011;1827;50.534;8.316;2024-03-17T00:45:44;20.67;;;7.33;;
3625;SDS011;1827;50.534;8.316;2024-03-17T00:48:16;20.93;;;8.30;;
3625;SDS011;1827;50.534;8.316;2024-03-17T00:50:42;27.10;;;7.80;;
3625;SDS011;1827;50.534;8.316;2024-03-17T00:53:10;23.53;;;7.47;;
3625;SDS011;1827;50.534;8.316;2024-03-17T00:55:36;21.97;;;7.70;;
3625;SDS011;1827;50.534;8.316;2024-03-17T00:58:02;22.67;;;8.10;;
3625;SDS011;1827;50.534;8.316;2024-03-17T01:00:28;31.30;;;9.20;;
3625;SDS011;1827;50.534;8.316;2024-03-17T01:02:54;24.17;;;7.80;;
3625;SDS011;1827;50.534;8.316;2024-03-17T01:05:19;22.33;;;8.30;;
3625;SDS011;1827;50.534;8.316;2024-03-17T01:10:13;21.93;;;7.53;;
3625;SDS011;1827;50.534;8.316;2024-03-17T01:12:38;24.90;;;8.23;;
3625;SDS011;1827;50.534;8.316;2024-03-17T01:15:07;24.10;;;7.90;;
3625;SDS011;1827;50.534;8.316;2024-03-17T01:17:33;23.10;;;8.00;;
3625;SDS011;1827;50.534;8.316;2024-03-17T01:19:59;21.40;;;8.00;;
3625;SDS011;1827;50.534;8.316;2024-03-17T01:22:25;23.47;;;8.33;;
3625;SDS011;1827;50.534;8.316;2024-03-17T01:24:51;22.17;;;8.07;;
3625;SDS011;1827;50.534;8.316;2024-03-17T01:27:16;26.87;;;7.60;;
3625;SDS011;1827;50.534;8.316;2024-03-17T01:29:42;20.57;;;7.00;;
3625;SDS011;1827;50.534;8.316;2024-03-17T01:32:08;23.87;;;7.90;;
3625;SDS011;1827;50.534;8.316;2024-03-17T01:34:36;27.43;;;7.70;;
3625;SDS011;1827;50.534;8.316;2024-03-17T01:37:02;20.40;;;7.00;;
3625;SDS011;1827;50.534;8.316;2024-03-17T01:39:28;23.90;;;7.33;;
3625;SDS011;1827;50.534;8.316;2024-03-17T01:41:53;26.30;;;8.23;;
3625;SDS011;1827;50.534;8.316;2024-03-17T01:44:21;20.70;;;7.10;;
3625;SDS011;1827;50.534;8.316;2024-03-17T01:46:49;25.90;;;7.27;;
3625;SDS011;1827;50.534;8.316;2024-03-17T01:49:19;24.37;;;7.77;;
3625;SDS011;1827;50.534;8.316;2024-03-17T01:54:12;28.53;;;7.37;;
3625;SDS011;1827;50.534;8.316;2024-03-17T01:56:38;22.27;;;7.60;;
3625;SDS011;1827;50.534;8.316;2024-03-17T01:59:05;21.70;;;8.00;;
3625;SDS011;1827;50.534;8.316;2024-03-17T02:01:32;26.27;;;8.70;;
3625;SDS011;1827;50.534;8.316;2024-03-17T02:03:58;20.40;;;7.73;;
3625;SDS011;1827;50.534;8.316;2024-03-17T02:06:24;25.00;;;8.03;;
3625;SDS011;1827;50.534;8.316;2024-03-17T02:08:53;24.90;;;8.53;;
3625;SDS011;1827;50.534;8.316;2024-03-17T02:11:29;24.20;;;7.50;;
3625;SDS011;1827;50.534;8.316;2024-03-17T02:13:56;22.67;;;7.83;;
3625;SDS011;1827;50.534;8.316;2024-03-17T02:16:23;20.43;;;7.37;;
3625;SDS011;1827;50.534;8.316;2024-03-17T02:18:49;24.43;;;8.33;;
3625;SDS011;1827;50.534;8.316;2024-03-17T02:21:22;20.25;;;7.50;;
3625;SDS011;1827;50.534;8.316;2024-03-17T08:32:44;30.10;;;7.95;;
3625;SDS011;1827;50.534;8.316;2024-03-17T08:35:10;21.97;;;7.17;;
3625;SDS011;1827;50.534;8.316;2024-03-17T08:37:36;23.43;;;8.30;;
3625;SDS011;1827;50.534;8.316;2024-03-17T08:40:02;24.23;;;7.90;;
3625;SDS011;1827;50.534;8.316;2024-03-17T08:42:30;18.50;;;6.90;;
3625;SDS011;1827;50.534;8.316;2024-03-17T10:25:39;23.37;;;6.17;;
3625;SDS011;1827;50.534;8.316;2024-03-17T10:28:11;21.50;;;5.90;;
3625;SDS011;1827;50.534;8.316;2024-03-17T10:30:38;20.20;;;6.83;;
3625;SDS011;1827;50.534;8.316;2024-03-17T10:33:07;19.60;;;6.30;;
3625;SDS011;1827;50.534;8.316;2024-03-17T10:43:05;28.37;;;6.97;;
3625;SDS011;1827;50.534;8.316;2024-03-17T10:45:32;22.10;;;6.53;;
3625;SDS011;1827;50.534;8.316;2024-03-17T10:48:03;20.67;;;6.90;;
3625;SDS011;1827;50.534;8.316;2024-03-17T10:50:36;20.70;;;6.50;;
3625;SDS011;1827;50.534;8.316;2024-03-17T10:53:03;20.87;;;6.33;;
3625;SDS011;1827;50.534;8.316;2024-03-17T10:55:43;24.47;;;6.10;;
3625;SDS011;1827;50.534;8.316;2024-03-17T10:58:33;22.43;;;6.17;;
3625;SDS011;1827;50.534;8.316;2024-03-17T11:01:03;21.63;;;6.87;;
3625;SDS011;1827;50.534;8.316;2024-03-17T11:03:32;20.07;;;6.03;;
3625;SDS011;1827;50.534;8.316;2024-03-17T11:05:59;19.30;;;5.60;;
3625;SDS011;1827;50.534;8.316;2024-03-17T11:08:29;22.30;;;5.60;;
3625;SDS011;1827;50.534;8.316;2024-03-17T11:10:58;19.70;;;5.80;;
3625;SDS011;1827;50.534;8.316;2024-03-17T11:13:24;21.47;;;5.17;;
3625;SDS011;1827;50.534;8.316;2024-03-17T11:15:52;19.70;;;5.30;;
3625;SDS011;1827;50.534;8.316;2024-03-17T11:21:05;19.93;;;4.83;;
3625;SDS011;1827;50.534;8.316;2024-03-17T11:23:37;20.97;;;5.70;;
3625;SDS011;1827;50.534;8.316;2024-03-17T11:36:54;17.57;;;5.17;;
3625;SDS011;1827;50.534;8.316;2024-03-17T11:54:33;17.73;;;4.60;;
3625;SDS011;1827;50.534;8.316;2024-03-17T11:57:05;18.40;;;3.70;;
3625;SDS011;1827;50.534;8.316;2024-03-17T11:59:48;16.17;;;4.17;;
3625;SDS011;1827;50.534;8.316;2024-03-17T12:02:27;18.20;;;4.23;;
3625;SDS011;1827;50.534;8.316;2024-03-17T12:04:57;18.17;;;4.10;;
3625;SDS011;1827;50.534;8.316;2024-03-17T12:07:23;19.63;;;4.10;;
3625;SDS011;1827;50.534;8.316;2024-03-17T12:09:53;20.30;;;4.90;;
3625;SDS011;1827;50.534;8.316;2024-03-17T12:12:27;18.37;;;4.30;;
3625;SDS011;1827;50.534;8.316;2024-03-17T12:15:16;16.90;;;4.80;;
3625;SDS011;1827;50.534;8.316;2024-03-17T12:17:44;17.10;;;4.70;;
3625;SDS011;1827;50.534;8.316;2024-03-17T12:20:18;18.43;;;4.77;;
3625;SDS011;1827;50.534;8.316;2024-03-17T12:22:45;19.70;;;4.83;;
3625;SDS011;1827;50.534;8.316;2024-03-17T12:27:45;19.73;;;4.90;;
3625;SDS011;1827;50.534;8.316;2024-03-17T12:30:14;18.80;;;5.20;;
3625;SDS011;1827;50.534;8.316;2024-03-17T12:32:42;17.80;;;5.00;;
3625;SDS011;1827;50.534;8.316;2024-03-17T12:35:12;19.13;;;5.47;;
3625;SDS011;1827;50.534;8.316;2024-03-17T12:37:40;19.87;;;4.13;;
3625;SDS011;1827;50.534;8.316;2024-03-17T12:40:17;21.40;;;4.70;;
3625;SDS011;1827;50.534;8.316;2024-03-17T12:42:47;18.30;;;4.10;;
3625;SDS011;1827;50.534;8.316;2024-03-17T12:45:14;23.83;;;5.00;;
3625;SDS011;1827;50.534;8.316;2024-03-17T12:47:47;19.17;;;4.90;;
3625;SDS011;1827;50.534;8.316;2024-03-17T12:50:13;18.63;;;5.43;;
3625;SDS011;1827;50.534;8.316;2024-03-17T12:52:39;18.27;;;5.17;;
3625;SDS011;1827;50.534;8.316;2024-03-17T12:55:15;19.60;;;4.90;;
3625;SDS011;1827;50.534;8.316;2024-03-17T12:58:06;19.73;;;5.30;;
3625;SDS011;1827;50.534;8.316;2024-03-17T13:00:58;19.17;;;5.40;;
3625;SDS011;1827;50.534;8.316;2024-03-17T13:03:30;21.33;;;5.50;;
3625;SDS011;1827;50.534;8.316;2024-03-17T13:05:59;21.57;;;6.90;;
3625;SDS011;1827;50.534;8.316;2024-03-17T13:08:29;18.43;;;5.33;;
3625;SDS011;1827;50.534;8.316;2024-03-17T13:10:56;16.67;;;4.60;;
3625;SDS011;1827;50.534;8.316;2024-03-17T13:13:23;18.87;;;4.40;;
3625;SDS011;1827;50.534;8.316;2024-03-17T13:15:48;18.67;;;4.77;;
3625;SDS011;1827;50.534;8.316;2024-03-17T13:18:16;17.53;;;4.80;;
3625;SDS011;1827;50.534;8.316;2024-03-17T13:20:46;19.87;;;4.87;;
3625;SDS011;1827;50.534;8.316;2024-03-17T13:23:15;23.43;;;5.70;;
3625;SDS011;1827;50.534;8.316;2024-03-17T13:25:41;19.90;;;4.87;;
3625;SDS011;1827;50.534;8.316;2024-03-17T13:28:08;18.87;;;5.40;;
3625;SDS011;1827;50.534;8.316;2024-03-17T13:30:35;24.10;;;8.17;;
3625;SDS011;1827;50.534;8.316;2024-03-17T13:33:05;18.60;;;4.70;;
3625;SDS011;1827;50.534;8.316;2024-03-17T13:35:34;18.03;;;4.83;;
3625;SDS011;1827;50.534;8.316;2024-03-17T13:38:04;18.07;;;4.53;;
3625;SDS011;1827;50.534;8.316;2024-03-17T13:40:32;19.27;;;5.20;;
3625;SDS011;1827;50.534;8.316;2024-03-17T13:42:58;19.43;;;5.00;;
3625;SDS011;1827;50.534;8.316;2024-03-17T13:45:25;17.93;;;4.20;;
3625;SDS011;1827;50.534;8.316;2024-03-17T13:48:01;17.83;;;4.43;;
3625;SDS011;1827;50.534;8.316;2024-03-17T13:50:29;19.53;;;4.90;;
3625;SDS011;1827;50.534;8.316;2024-03-17T13:52:55;16.30;;;4.20;;
3625;SDS011;1827;50.534;8.316;2024-03-17T13:55:24;18.47;;;4.43;;
3625;SDS011;1827;50.534;8.316;2024-03-17T13:57:54;17.50;;;4.30;;
3625;SDS011;1827;50.534;8.316;2024-03-17T14:00:21;18.37;;;4.37;;
3625;SDS011;1827;50.534;8.316;2024-03-17T14:02:51;21.67;;;5.00;;
3625;SDS011;1827;50.534;8.316;2024-03-17T14:05:27;18.50;;;4.50;;
3625;SDS011;1827;50.534;8.316;2024-03-17T14:07:53;21.17;;;5.40;;
3625;SDS011;1827;50.534;8.316;2024-03-17T14:10:21;18.40;;;4.20;;
3625;SDS011;1827;50.534;8.316;2024-03-17T14:12:47;18.67;;;4.40;;
3625;SDS011;1827;50.534;8.316;2024-03-17T14:15:13;16.57;;;3.90;;
3625;SDS011;1827;50.534;8.316;2024-03-17T14:17:40;25.70;;;4.53;;
3625;SDS011;1827;50.534;8.316;2024-03-17T14:20:07;19.07;;;5.10;;
3625;SDS011;1827;50.534;8.316;2024-03-17T14:22:41;20.10;;;5.87;;
3625;SDS011;1827;50.534;8.316;2024-03-17T14:25:08;17.97;;;4.67;;
3625;SDS011;1827;50.534;8.316;2024-03-17T14:27:36;23.20;;;4.70;;
3625;SDS011;1827;50.534;8.316;2024-03-17T14:30:02;20.00;;;4.80;;
3625;SDS011;1827;50.534;8.316;2024-03-17T14:32:29;18.80;;;4.40;;
3625;SDS011;1827;50.534;8.316;2024-03-17T14:34:55;19.57;;;5.20;;
3625;SDS011;1827;50.534;8.316;2024-03-17T14:37:21;17.20;;;4.77;;
3625;SDS011;1827;50.534;8.316;2024-03-17T14:39:48;18.43;;;4.83;;
3625;SDS011;1827;50.534;8.316;2024-03-17T16:50:02;22.30;;;7.27;;
3625;SDS011;1827;50.534;8.316;2024-03-17T16:52:34;24.30;;;7.90;;
3625;SDS011;1827;50.534;8.316;2024-03-17T16:55:04;30.40;;;7.60;;
3625;SDS011;1827;50.534;8.316;2024-03-17T16:57:32;20.77;;;6.43;;
3625;SDS011;1827;50.534;8.316;2024-03-17T16:59:59;22.77;;;7.37;;
3625;SDS011;1827;50.534;8.316;2024-03-17T17:02:38;28.63;;;7.70;;
3625;SDS011;1827;50.534;8.316;2024-03-17T17:05:08;28.97;;;10.80;;
3625;SDS011;1827;50.534;8.316;2024-03-17T17:07:41;23.33;;;7.13;;
3625;SDS011;1827;50.534;8.316;2024-03-17T17:10:12;24.43;;;8.40;;
3625;SDS011;1827;50.534;8.316;2024-03-17T17:12:39;26.07;;;7.53;;
3625;SDS011;1827;50.534;8.316;2024-03-17T17:15:07;24.97;;;7.60;;
3625;SDS011;1827;50.534;8.316;2024-03-17T17:17:44;26.83;;;9.80;;
3625;SDS011;1827;50.534;8.316;2024-03-17T17:20:12;25.80;;;8.80;;
3625;SDS011;1827;50.534;8.316;2024-03-17T17:22:38;25.80;;;8.50;;
3625;SDS011;1827;50.534;8.316;2024-03-17T17:25:04;27.50;;;7.97;;
3625;SDS011;1827;50.534;8.316;2024-03-17T17:27:32;22.27;;;7.80;;
3625;SDS011;1827;50.534;8.316;2024-03-17T17:30:01;28.30;;;8.27;;
3625;SDS011;1827;50.534;8.316;2024-03-17T17:32:31;22.53;;;7.47;;
3625;SDS011;1827;50.534;8.316;2024-03-17T17:34:59;22.70;;;7.63;;
3625;SDS011;1827;50.534;8.316;2024-03-17T17:37:25;24.33;;;8.23;;
3625;SDS011;1827;50.534;8.316;2024-03-17T17:39:50;24.17;;;7.57;;
3625;SDS011;1827;50.534;8.316;2024-03-17T17:42:16;21.57;;;6.87;;
3625;SDS011;1827;50.534;8.316;2024-03-17T17:44:44;26.30;;;8.00;;
3625;SDS011;1827;50.534;8.316;2024-03-17T17:47:10;25.27;;;8.30;;
3625;SDS011;1827;50.534;8.316;2024-03-17T17:49:35;25.67;;;9.10;;
3625;SDS011;1827;50.534;8.316;2024-03-17T17:52:01;25.23;;;8.60;;
3625;SDS011;1827;50.534;8.316;2024-03-17T17:54:28;24.60;;;8.30;;
3625;SDS011;1827;50.534;8.316;2024-03-17T17:56:54;30.10;;;8.53;;
3625;SDS011;1827;50.534;8.316;2024-03-17T17:59:20;26.97;;;8.13;;
3625;SDS011;1827;50.534;8.316;2024-03-17T18:01:45;25.70;;;8.83;;
3625;SDS011;1827;50.534;8.316;2024-03-17T18:04:11;25.33;;;8.20;;
3625;SDS011;1827;50.534;8.316;2024-03-17T18:06:37;28.27;;;8.80;;
3625;SDS011;1827;50.534;8.316;2024-03-17T18:09:02;25.70;;;8.97;;
3625;SDS011;1827;50.534;8.316;2024-03-17T18:11:36;23.90;;;8.40;;
3625;SDS011;1827;50.534;8.316;2024-03-17T18:14:02;23.57;;;8.10;;
3625;SDS011;1827;50.534;8.316;2024-03-17T18:16:31;29.43;;;8.27;;
3625;SDS011;1827;50.534;8.316;2024-03-17T18:18:57;22.10;;;8.10;;
3625;SDS011;1827;50.534;8.316;2024-03-17T18:21:22;23.67;;;8.17;;
3625;SDS011;1827;50.534;8.316;2024-03-17T18:23:49;24.37;;;7.80;;
3625;SDS011;1827;50.534;8.316;2024-03-17T18:26:16;24.33;;;8.17;;
3625;SDS011;1827;50.534;8.316;2024-03-17T18:28:42;23.30;;;8.33;;
3625;SDS011;1827;50.534;8.316;2024-03-17T18:31:09;27.83;;;8.40;;
3625;SDS011;1827;50.534;8.316;2024-03-17T18:33:37;27.73;;;8.37;;
3625;SDS011;1827;50.534;8.316;2024-03-17T18:36:05;22.33;;;7.17;;
3625;SDS011;1827;50.534;8.316;2024-03-17T18:38:32;28.17;;;8.20;;
3625;SDS011;1827;50.534;8.316;2024-03-17T18:41:02;24.97;;;7.63;;
3625;SDS011;1827;50.534;8.316;2024-03-17T18:43:33;24.93;;;7.90;;
3625;SDS011;1827;50.534;8.316;2024-03-17T18:46:14;22.90;;;7.07;;
3625;SDS011;1827;50.534;8.316;2024-03-17T18:48:41;22.67;;;6.40;;
3625;SDS011;1827;50.534;8.316;2024-03-17T18:51:08;22.80;;;7.60;;
3625;SDS011;1827;50.534;8.316;2024-03-17T18:53:37;26.63;;;7.70;;
3625;SDS011;1827;50.534;8.316;2024-03-17T18:56:04;28.87;;;9.93;;
3625;SDS011;1827;50.534;8.316;2024-03-17T18:58:30;31.50;;;10.27;;
3625;SDS011;1827;50.534;8.316;2024-03-17T19:00:59;28.97;;;9.93;;
3625;SDS011;1827;50.534;8.316;2024-03-17T19:03:30;29.80;;;10.03;;
3625;SDS011;1827;50.534;8.316;2024-03-17T19:05:57;27.60;;;10.70;;
3625;SDS011;1827;50.534;8.316;2024-03-17T19:08:29;27.20;;;11.37;;
3625;SDS011;1827;50.534;8.316;2024-03-17T19:10:55;25.53;;;9.37;;
3625;SDS011;1827;50.534;8.316;2024-03-17T19:13:22;27.60;;;9.20;;
3625;SDS011;1827;50.534;8.316;2024-03-17T19:15:59;21.07;;;7.60;;
3625;SDS011;1827;50.534;8.316;2024-03-17T19:21:02;33.00;;;9.70;;
3625;SDS011;1827;50.534;8.316;2024-03-17T19:23:40;26.67;;;9.53;;
3625;SDS011;1827;50.534;8.316;2024-03-17T19:26:08;24.93;;;9.13;;
3625;SDS011;1827;50.534;8.316;2024-03-17T19:28:41;25.03;;;8.80;;
3625;SDS011;1827;50.534;8.316;2024-03-17T19:31:08;24.63;;;8.10;;
3625;SDS011;1827;50.534;8.316;2024-03-17T19:33:33;26.20;;;8.93;;
3625;SDS011;1827;50.534;8.316;2024-03-17T19:36:00;27.63;;;8.93;;
3625;SDS011;1827;50.534;8.316;2024-03-17T19:38:30;28.30;;;9.47;;
3625;SDS011;1827;50.534;8.316;2024-03-17T19:41:01;26.40;;;8.57;;
3625;SDS011;1827;50.534;8.316;2024-03-17T19:43:30;29.67;;;10.23;;
3625;SDS011;1827;50.534;8.316;2024-03-17T19:46:02;26.90;;;9.53;;
3625;SDS011;1827;50.534;8.316;2024-03-17T19:48:36;27.40;;;9.23;;
3625;SDS011;1827;50.534;8.316;2024-03-17T19:51:15;26.63;;;10.20;;
3625;SDS011;1827;50.534;8.316;2024-03-17T19:53:43;25.67;;;8.90;;
3625;SDS011;1827;50.534;8.316;2024-03-17T19:56:11;25.77;;;9.40;;
3625;SDS011;1827;50.534;8.316;2024-03-17T19:58:43;29.77;;;9.87;;
3625;SDS011;1827;50.534;8.316;2024-03-17T20:01:12;26.07;;;9.63;;
3625;SDS011;1827;50.534;8.316;2024-03-17T20:03:38;27.93;;;9.10;;
3625;SDS011;1827;50.534;8.316;2024-03-17T20:06:06;29.30;;;8.97;;
3625;SDS011;1827;50.534;8.316;2024-03-17T20:08:39;30.30;;;8.80;;
3625;SDS011;1827;50.534;8.316;2024-03-17T20:11:05;22.57;;;9.00;;
3625;SDS011;1827;50.534;8.316;2024-03-17T20:13:30;26.00;;;9.97;;
3625;SDS011;1827;50.534;8.316;2024-03-17T20:15:56;27.03;;;8.80;;
3625;SDS011;1827;50.534;8.316;2024-03-17T20:18:22;22.20;;;7.97;;
3625;SDS011;1827;50.534;8.316;2024-03-17T20:20:48;24.80;;;7.83;;
3625;SDS011;1827;50.534;8.316;2024-03-17T20:23:14;26.40;;;8.70;;
3625;SDS011;1827;50.534;8.316;2024-03-17T20:25:43;23.97;;;8.70;;
3625;SDS011;1827;50.534;8.316;2024-03-17T20:28:10;25.20;;;8.57;;
3625;SDS011;1827;50.534;8.316;2024-03-17T20:30:37;28.60;;;10.60;;
3625;SDS011;1827;50.534;8.316;2024-03-17T20:33:03;28.83;;;9.50;;
3625;SDS011;1827;50.534;8.316;2024-03-17T20:35:28;26.37;;;9.70;;
3625;SDS011;1827;50.534;8.316;2024-03-17T20:37:54;25.13;;;8.67;;
3625;SDS011;1827;50.534;8.316;2024-03-17T20:40:21;30.67;;;11.53;;
3625;SDS011;1827;50.534;8.316;2024-03-17T20:42:50;26.63;;;10.77;;
3625;SDS011;1827;50.534;8.316;2024-03-17T20:45:17;29.53;;;10.30;;
3625;SDS011;1827;50.534;8.316;2024-03-17T20:47:45;30.90;;;12.17;;
3625;SDS011;1827;50.534;8.316;2024-03-17T20:50:15;29.77;;;10.97;;
3625;SDS011;1827;50.534;8.316;2024-03-17T20:52:43;30.33;;;11.70;;
3625;SDS011;1827;50.534;8.316;2024-03-17T20:55:09;26.33;;;9.90;;
3625;SDS011;1827;50.534;8.316;2024-03-17T20:57:35;28.57;;;9.40;;
3625;SDS011;1827;50.534;8.316;2024-03-17T21:00:05;27.43;;;10.07;;
3625;SDS011;1827;50.534;8.316;2024-03-17T21:02:47;26.60;;;8.87;;
3625;SDS011;1827;50.534;8.316;2024-03-17T21:05:18;27.67;;;9.33;;
3625;SDS011;1827;50.534;8.316;2024-03-17T21:07:46;26.10;;;8.97;;
3625;SDS011;1827;50.534;8.316;2024-03-17T21:10:11;22.50;;;8.60;;
3625;SDS011;1827;50.534;8.316;2024-03-17T21:12:38;27.50;;;9.70;;
3625;SDS011;1827;50.534;8.316;2024-03-17T21:15:05;33.67;;;10.53;;
3625;SDS011;1827;50.534;8.316;2024-03-17T21:17:33;32.70;;;10.80;;
3625;SDS011;1827;50.534;8.316;2024-03-17T21:20:05;28.10;;;9.97;;
3625;SDS011;1827;50.534;8.316;2024-03-17T21:22:35;30.90;;;9.90;;
3625;SDS011;1827;50.534;8.316;2024-03-17T21:25:01;27.90;;;10.87;;
3625;SDS011;1827;50.534;8.316;2024-03-17T21:27:32;27.90;;;10.50;;
3625;SDS011;1827;50.534;8.316;2024-03-17T21:29:58;31.87;;;9.57;;
3625;SDS011;1827;50.534;8.316;2024-03-17T21:32:24;26.40;;;9.23;;
3625;SDS011;1827;50.534;8.316;2024-03-17T21:34:54;23.00;;;8.70;;
3625;SDS011;1827;50.534;8.316;2024-03-17T21:37:22;23.70;;;8.73;;
3625;SDS011;1827;50.534;8.316;2024-03-17T21:39:48;24.40;;;9.07;;
3625;SDS011;1827;50.534;8.316;2024-03-17T21:42:16;26.97;;;8.70;;
3625;SDS011;1827;50.534;8.316;2024-03-17T21:44:41;21.80;;;8.07;;
3625;SDS011;1827;50.534;8.316;2024-03-17T21:47:07;23.73;;;8.90;;
3625;SDS011;1827;50.534;8.316;2024-03-17T21:49:34;27.90;;;9.23;;
3625;SDS011;1827;50.534;8.316;2024-03-17T21:52:01;27.43;;;9.43;;
3625;SDS011;1827;50.534;8.316;2024-03-17T21:54:26;25.13;;;9.67;;
3625;SDS011;1827;50.534;8.316;2024-03-17T21:56:52;28.20;;;9.93;;
3625;SDS011;1827;50.534;8.316;2024-03-17T21:59:18;28.53;;;10.67;;
3625;SDS011;1827;50.534;8.316;2024-03-17T22:01:44;28.80;;;11.23;;
3625;SDS011;1827;50.534;8.316;2024-03-17T22:04:10;31.87;;;10.33;;
3625;SDS011;1827;50.534;8.316;2024-03-17T22:06:36;25.17;;;9.47;;
3625;SDS011;1827;50.534;8.316;2024-03-17T22:09:02;28.50;;;10.53;;
3625;SDS011;1827;50.534;8.316;2024-03-17T22:11:30;26.63;;;9.80;;
3625;SDS011;1827;50.534;8.316;2024-03-17T22:13:57;29.50;;;10.67;;
3625;SDS011;1827;50.534;8.316;2024-03-17T22:16:23;26.43;;;9.67;;
3625;SDS011;1827;50.534;8.316;2024-03-17T22:18:49;27.50;;;10.67;;
3625;SDS011;1827;50.534;8.316;2024-03-17T22:21:15;28.20;;;10.80;;
3625;SDS011;1827;50.534;8.316;2024-03-17T22:23:41;27.40;;;10.80;;
3625;SDS011;1827;50.534;8.316;2024-03-17T22:26:08;29.40;;;11.20;;
3625;SDS011;1827;50.534;8.316;2024-03-17T22:28:34;27.73;;;10.73;;
3625;SDS011;1827;50.534;8.316;2024-03-17T22:31:00;26.87;;;9.50;;
3625;SDS011;1827;50.534;8.316;2024-03-17T22:33:33;27.07;;;10.80;;
3625;SDS011;1827;50.534;8.316;2024-03-17T22:35:59;24.53;;;8.97;;
3625;SDS011;1827;50.534;8.316;2024-03-17T22:38:26;31.03;;;10.60;;
3625;SDS011;1827;50.534;8.316;2024-03-17T22:40:55;26.50;;;10.97;;
3625;SDS011;1827;50.534;8.316;2024-03-17T22:43:23;26.90;;;10.57;;
3625;SDS011;1827;50.534;8.316;2024-03-17T22:45:49;23.83;;;9.00;;
3625;SDS011;1827;50.534;8.316;2024-03-17T22:48:19;29.00;;;10.23;;
3625;SDS011;1827;50.534;8.316;2024-03-17T22:50:48;26.97;;;10.03;;
3625;SDS011;1827;50.534;8.316;2024-03-17T22:53:15;23.90;;;9.30;;
3625;SDS011;1827;50.534;8.316;2024-03-17T22:55:48;26.13;;;9.47;;
3625;SDS011;1827;50.534;8.316;2024-03-17T22:58:14;31.40;;;10.37;;
3625;SDS011;1827;50.534;8.316;2024-03-17T23:00:40;26.67;;;9.97;;
3625;SDS011;1827;50.534;8.316;2024-03-17T23:03:25;24.80;;;9.63;;
3625;SDS011;1827;50.534;8.316;2024-03-17T23:05:52;30.30;;;9.33;;
3625;SDS011;1827;50.534;8.316;2024-03-17T23:08:22;27.37;;;9.63;;
3625;SDS011;1827;50.534;8.316;2024-03-17T23:10:50;26.37;;;9.47;;
3625;SDS011;1827;50.534;8.316;2024-03-17T23:13:16;31.10;;;10.33;;
3625;SDS011;1827;50.534;8.316;2024-03-17T23:15:44;28.60;;;9.90;;
3625;SDS011;1827;50.534;8.316;2024-03-17T23:18:10;27.27;;;10.10;;
3625;SDS011;1827;50.534;8.316;2024-03-17T23:20:37;25.33;;;9.60;;
3625;SDS011;1827;50.534;8.316;2024-03-17T23:23:03;30.27;;;9.80;;
3625;SDS011;1827;50.534;8.316;2024-03-17T23:25:33;25.50;;;9.10;;
3625;SDS011;1827;50.534;8.316;2024-03-17T23:28:03;25.10;;;9.43;;
3625;SDS011;1827;50.534;8.316;2024-03-17T23:30:31;29.57;;;9.07;;
3625;SDS011;1827;50.534;8.316;2024-03-17T23:32:57;32.50;;;8.87;;
3625;SDS011;1827;50.534;8.316;2024-03-17T23:35:24;29.27;;;9.13;;
3625;SDS011;1827;50.534;8.316;2024-03-17T23:37:51;25.20;;;9.90;;
3625;SDS011;1827;50.534;8.316;2024-03-17T23:40:19;26.17;;;10.00;;
3625;SDS011;1827;50.534;8.316;2024-03-17T23:42:47;29.13;;;10.47;;
3625;SDS011;1827;50.534;8.316;2024-03-17T23:45:15;24.30;;;9.33;;
3625;SDS011;1827;50.534;8.316;2024-03-17T23:47:43;26.93;;;9.80;;
3625;SDS011;1827;50.534;8.316;2024-03-17T23:50:09;28.60;;;10.80;;
3625;SDS011;1827;50.534;8.316;2024-03-17T23:52:36;31.23;;;11.47;;
3625;SDS011;1827;50.534;8.316;2024-03-17T23:55:02;43.70;;;15.87;;
3625;SDS011;1827;50.534;8.316;2024-03-17T23:57:29;40.90;;;14.57;;
3625;SDS011;1827;50.534;8.316;2024-03-17T23:59:55;37.70;;;14.50;;
